Time;durP1;ratioP1;P1;durP2;ratioP2;P2;SDS_P1;SDS_P2;PMS_P1;PMS_P2;Temp;Humidity;BMP_temperature;BMP_pressure;BME280_temperature;BME280_humidity;BME280_pressure;Samples;Min_cycle;Max_cycle;Signal;HPM_P1;HPM_P2
2023/05/26 00:00:25;;;;;;;7.10;2.67;;;;;;;17.83;58.49;100951.31;5013898;28;20025;-51
2023/05/26 00:02:51;;;;;;;6.10;2.35;;;;;;;17.70;58.87;100943.50;5013388;28;20470;-51
2023/05/26 00:05:20;;;;;;;4.93;2.42;;;;;;;17.59;59.06;100956.06;5012757;28;20033;-48
2023/05/26 00:07:47;;;;;;;6.75;2.30;;;;;;;17.49;59.17;100949.69;5013777;28;20064;-52
2023/05/26 00:10:14;;;;;;;4.78;2.13;;;;;;;17.49;59.82;100950.53;5013589;28;20022;-50
2023/05/26 00:12:41;;;;;;;9.25;2.90;;;;;;;17.49;59.82;100955.97;5004822;28;20034;-53
2023/05/26 00:15:08;;;;;;;5.72;2.40;;;;;;;17.35;59.72;100962.78;4994059;28;20479;-48
2023/05/26 00:17:35;;;;;;;4.72;2.40;;;;;;;17.28;60.43;100962.13;4993705;28;20391;-52
2023/05/26 00:20:04;;;;;;;6.97;2.63;;;;;;;17.28;60.69;100959.44;4993949;28;20438;-50
2023/05/26 00:22:30;;;;;;;6.75;2.65;;;;;;;17.18;60.64;100953.84;4993481;28;20022;-49
2023/05/26 00:24:56;;;;;;;7.13;2.90;;;;;;;17.07;61.23;100948.28;4993935;28;20073;-49
2023/05/26 00:27:22;;;;;;;7.40;3.03;;;;;;;17.06;61.71;100945.84;4993674;28;20137;-53
2023/05/26 00:29:48;;;;;;;5.72;2.78;;;;;;;16.95;61.55;100952.16;4993806;28;20030;-52
2023/05/26 00:32:16;;;;;;;8.77;3.00;;;;;;;16.93;61.75;100952.38;5001646;28;20034;-51
2023/05/26 00:34:42;;;;;;;5.72;2.67;;;;;;;16.63;62.35;100947.25;5013315;28;20040;-50
2023/05/26 00:37:09;;;;;;;9.82;2.58;;;;;;;16.73;63.23;100954.75;5013098;28;20030;-53
2023/05/26 00:39:35;;;;;;;5.65;3.00;;;;;;;16.71;63.39;100949.59;5007619;28;20061;-52
2023/05/26 00:42:02;;;;;;;6.63;3.13;;;;;;;16.62;62.95;100954.53;5008666;28;20434;-51
2023/05/26 00:44:28;;;;;;;9.48;3.30;;;;;;;16.67;63.57;100948.41;4993486;28;20030;-51
2023/05/26 00:46:54;;;;;;;7.30;3.00;;;;;;;16.63;63.73;100939.94;5009310;28;20046;-51
2023/05/26 00:49:20;;;;;;;9.48;2.88;;;;;;;16.49;63.73;100941.34;4996762;28;20410;-52
2023/05/26 00:51:47;;;;;;;8.10;2.92;;;;;;;16.41;63.91;100947.13;4999356;28;20141;-50
2023/05/26 00:54:14;;;;;;;7.32;2.97;;;;;;;16.13;65.30;100955.22;4995569;28;20121;-52
2023/05/26 00:56:42;;;;;;;7.20;3.03;;;;;;;16.02;65.59;100944.19;4992870;28;20574;-52
2023/05/26 00:59:11;;;;;;;9.30;3.13;;;;;;;15.98;65.46;100943.03;4997821;28;20030;-52
2023/05/26 01:01:37;;;;;;;7.82;2.70;;;;;;;15.93;66.15;100945.63;5003736;28;20026;-52
2023/05/26 01:04:04;;;;;;;10.50;3.40;;;;;;;15.84;66.56;100945.19;5012783;28;20093;-49
2023/05/26 01:06:31;;;;;;;5.45;2.70;;;;;;;15.84;66.50;100936.28;5003002;28;20034;-48
2023/05/26 01:08:58;;;;;;;7.15;2.55;;;;;;;15.83;66.45;100931.94;4993175;28;20025;-49
2023/05/26 01:11:50;;;;;;;12.77;3.08;;;;;;;15.76;66.43;100937.44;5001227;28;20084;-51
2023/05/26 01:14:35;;;;;;;5.88;2.53;;;;;;;15.76;65.93;100937.44;5010925;28;20041;-51
2023/05/26 01:17:11;;;;;;;4.93;2.28;;;;;;;15.67;66.61;100935.38;4992881;28;20038;-49
2023/05/26 01:19:52;;;;;;;9.98;2.50;;;;;;;15.64;66.90;100942.06;5012673;28;20032;-51
2023/05/26 01:22:37;;;;;;;7.32;2.60;;;;;;;15.70;67.10;100953.78;4997004;28;20042;-51
2023/05/26 01:25:17;;;;;;;4.95;2.67;;;;;;;15.51;67.59;100943.09;5000826;28;20064;-51
2023/05/26 01:28:05;;;;;;;10.80;2.75;;;;;;;15.50;67.67;100932.56;5003651;28;20054;-48
2023/05/26 01:30:34;;;;;;;6.90;2.53;;;;;;;15.43;68.11;100932.66;4992727;28;20033;-52
2023/05/26 01:33:00;;;;;;;10.70;2.92;;;;;;;15.34;68.01;100919.78;4995402;28;20034;-51
2023/05/26 01:35:26;;;;;;;5.95;2.90;;;;;;;15.34;68.23;100923.28;4992395;28;20505;-45
2023/05/26 01:37:55;;;;;;;11.35;3.40;;;;;;;15.26;68.94;100931.72;4992744;28;20105;-48
2023/05/26 01:40:21;;;;;;;7.25;3.00;;;;;;;15.20;68.69;100927.28;4991397;28;20029;-45
2023/05/26 01:42:56;;;;;;;8.18;2.88;;;;;;;15.22;68.98;100935.97;4992126;28;20054;-46
2023/05/26 01:45:26;;;;;;;5.47;2.90;;;;;;;15.23;68.60;100941.13;4998159;28;20106;-45
2023/05/26 01:47:57;;;;;;;4.03;2.83;;;;;;;15.27;67.07;100939.59;5012277;28;20056;-48
2023/05/26 01:50:29;;;;;;;5.70;2.58;;;;;;;15.03;68.17;100944.13;5012253;28;20443;-44
2023/05/26 01:52:59;;;;;;;5.30;3.05;;;;;;;15.03;67.91;100944.13;5012383;28;20079;-46
2023/05/26 01:55:28;;;;;;;6.55;2.63;;;;;;;15.14;67.17;100928.22;5012266;28;20030;-45
2023/05/26 01:57:57;;;;;;;7.07;2.97;;;;;;;14.98;68.06;100930.53;5012307;28;20117;-49
2023/05/26 02:00:27;;;;;;;6.32;3.00;;;;;;;14.93;68.96;100930.41;5012341;28;20028;-45
2023/05/26 02:02:53;;;;;;;10.00;5.28;;;;;;;14.95;68.45;100936.41;5012090;28;20121;-45
2023/05/26 02:05:19;;;;;;;6.18;2.90;;;;;;;14.86;69.24;100936.97;5011942;28;20034;-45
2023/05/26 02:07:46;;;;;;;6.38;2.90;;;;;;;14.92;68.35;100941.44;5012070;28;20026;-46
2023/05/26 02:10:12;;;;;;;6.70;2.55;;;;;;;14.94;68.28;100942.88;4997158;28;20038;-44
2023/05/26 02:12:39;;;;;;;6.15;2.53;;;;;;;14.78;68.97;100944.34;4993670;28;20116;-46
2023/05/26 02:15:06;;;;;;;6.65;2.80;;;;;;;14.76;69.19;100953.69;4998015;28;20048;-45
2023/05/26 02:17:32;;;;;;;5.43;2.38;;;;;;;14.85;69.00;100941.53;4992202;28;20026;-44
2023/05/26 02:19:59;;;;;;;5.78;2.80;;;;;;;14.80;68.90;100927.94;5010418;28;20030;-45
2023/05/26 02:22:25;;;;;;;4.50;2.10;;;;;;;14.76;68.36;100935.66;5011489;28;20026;-45
2023/05/26 02:24:51;;;;;;;2.90;2.30;;;;;;;14.68;68.88;100929.81;4992504;28;20077;-44
2023/05/26 02:27:18;;;;;;;3.75;2.17;;;;;;;14.78;68.74;100938.97;4999885;28;20076;-44
2023/05/26 02:29:44;;;;;;;3.20;1.90;;;;;;;14.65;69.15;100943.72;5015974;28;20508;-44
2023/05/26 02:32:10;;;;;;;4.53;2.00;;;;;;;14.67;69.20;100947.84;5016130;28;20021;-48
2023/05/26 02:34:36;;;;;;;3.60;1.98;;;;;;;14.57;69.49;100939.50;5015819;28;20033;-44
2023/05/26 02:37:03;;;;;;;4.75;2.35;;;;;;;14.57;70.04;100939.50;5015440;28;20026;-46
2023/05/26 02:39:29;;;;;;;3.35;2.20;;;;;;;14.61;69.80;100942.56;5014320;28;20026;-44
2023/05/26 02:41:56;;;;;;;5.15;2.40;;;;;;;14.58;70.27;100940.31;4996173;28;20038;-45
2023/05/26 02:44:22;;;;;;;4.53;2.25;;;;;;;14.59;70.80;100944.63;4997814;28;20022;-45
2023/05/26 02:46:48;;;;;;;6.13;2.40;;;;;;;14.43;71.38;100949.59;5001042;28;20109;-44
2023/05/26 02:49:14;;;;;;;4.57;2.50;;;;;;;14.38;71.92;100945.94;4995769;28;20038;-44
2023/05/26 02:51:40;;;;;;;5.18;2.67;;;;;;;14.29;72.15;100956.22;5003420;28;20125;-45
2023/05/26 02:54:07;;;;;;;5.00;2.20;;;;;;;14.14;72.83;100955.78;5004412;28;20558;-43
2023/05/26 02:56:33;;;;;;;5.07;2.22;;;;;;;14.18;72.65;100967.75;5006799;28;20395;-44
2023/05/26 02:58:59;;;;;;;5.15;2.15;;;;;;;14.16;72.81;100962.59;5004868;28;20057;-44
2023/05/26 03:01:25;;;;;;;7.40;2.20;;;;;;;14.19;72.62;100953.25;5011922;28;20033;-46
2023/05/26 03:03:52;;;;;;;5.43;1.90;;;;;;;14.25;72.62;100969.31;4995191;28;20026;-44
2023/05/26 03:06:18;;;;;;;5.65;2.28;;;;;;;14.21;72.52;100968.13;4995258;28;20023;-44
2023/05/26 03:08:44;;;;;;;6.25;2.80;;;;;;;14.32;72.22;100963.81;4995199;28;20023;-44
2023/05/26 03:11:10;;;;;;;7.43;3.00;;;;;;;14.17;73.23;100963.44;5003268;28;20071;-44
2023/05/26 03:13:37;;;;;;;7.45;2.67;;;;;;;14.10;73.42;100960.81;5012360;28;20077;-45
2023/05/26 03:16:03;;;;;;;6.35;2.83;;;;;;;14.16;73.19;100969.88;4994805;28;20475;-45
2023/05/26 03:18:30;;;;;;;4.82;2.80;;;;;;;14.13;73.19;100960.34;4995254;28;20037;-45
2023/05/26 03:20:56;;;;;;;8.57;2.72;;;;;;;14.15;72.92;100970.88;4995243;28;20030;-44
2023/05/26 03:23:23;;;;;;;7.68;2.70;;;;;;;14.20;72.70;100968.34;5012392;28;20101;-45
2023/05/26 03:25:49;;;;;;;9.05;3.08;;;;;;;14.10;73.15;100971.59;5014260;28;20034;-46
2023/05/26 03:28:16;;;;;;;4.90;2.70;;;;;;;14.18;72.79;100983.91;4995775;28;20026;-44
2023/05/26 03:30:42;;;;;;;7.88;2.83;;;;;;;14.04;73.45;100977.84;4998805;28;20544;-45
2023/05/26 03:33:08;;;;;;;6.47;2.65;;;;;;;14.17;73.08;100984.97;4994743;28;20026;-45
2023/05/26 03:35:35;;;;;;;6.40;2.97;;;;;;;14.17;72.82;100985.78;5005234;28;20022;-48
2023/05/26 03:38:01;;;;;;;6.82;2.72;;;;;;;14.18;72.57;100989.28;5014246;28;20149;-44
2023/05/26 03:40:27;;;;;;;5.70;2.67;;;;;;;14.22;72.39;100982.41;5014290;28;20050;-45
2023/05/26 03:42:54;;;;;;;6.53;2.90;;;;;;;14.05;73.08;100979.53;5014227;28;20077;-44
2023/05/26 03:45:20;;;;;;;6.85;2.58;;;;;;;14.19;72.07;100978.28;5013798;28;20033;-44
2023/05/26 03:47:46;;;;;;;4.75;2.33;;;;;;;14.13;72.41;100973.00;5011894;28;20030;-46
2023/05/26 03:50:13;;;;;;;6.07;2.90;;;;;;;14.15;72.29;100968.19;4994288;28;20077;-45
2023/05/26 03:52:40;;;;;;;4.78;2.15;;;;;;;14.19;72.00;100974.78;4994558;28;20037;-43
2023/05/26 03:55:09;;;;;;;4.03;2.25;;;;;;;13.99;72.65;100975.84;4993973;28;20027;-44
2023/05/26 03:57:36;;;;;;;6.50;2.47;;;;;;;14.00;72.70;100972.13;5001510;28;20030;-44
2023/05/26 04:00:05;;;;;;;7.00;2.50;;;;;;;13.99;72.54;100981.25;5002777;28;20528;-44
2023/05/26 04:02:32;;;;;;;4.63;2.20;;;;;;;13.96;72.62;100999.69;4993912;28;20041;-44
2023/05/26 04:04:58;;;;;;;4.50;2.75;;;;;;;13.94;73.19;101002.63;4993897;28;20033;-44
2023/05/26 04:07:24;;;;;;;3.60;2.08;;;;;;;13.85;73.22;101012.03;5003584;28;20395;-45
2023/05/26 04:09:50;;;;;;;3.22;1.77;;;;;;;13.88;72.72;101000.81;5013577;28;20034;-44
2023/05/26 04:12:17;;;;;;;6.53;2.60;;;;;;;13.81;72.82;101002.75;5012551;28;20038;-44
2023/05/26 04:14:43;;;;;;;4.88;2.30;;;;;;;13.85;72.63;101012.03;5013617;28;20034;-44
2023/05/26 04:17:09;;;;;;;4.35;2.35;;;;;;;13.77;72.83;101012.31;5011817;28;20022;-47
2023/05/26 04:19:35;;;;;;;6.32;2.25;;;;;;;13.76;72.99;101013.34;4995445;28;20030;-44
2023/05/26 04:22:01;;;;;;;6.38;2.00;;;;;;;13.63;73.83;101018.88;4993657;28;20038;-46
2023/05/26 04:24:28;;;;;;;6.43;1.98;;;;;;;13.62;73.68;101009.97;5013214;28;20034;-44
2023/05/26 04:26:54;;;;;;;4.97;2.60;;;;;;;13.73;73.54;101017.31;5013646;28;20118;-45
2023/05/26 04:29:20;;;;;;;5.00;2.40;;;;;;;13.74;73.87;101023.53;4996238;28;20060;-44
2023/05/26 04:31:47;;;;;;;8.40;2.55;;;;;;;13.74;74.03;101021.66;5003286;28;20029;-44
2023/05/26 04:34:14;;;;;;;4.45;2.80;;;;;;;13.56;75.39;101032.38;5019694;23;20054;-44
2023/05/26 04:36:40;;;;;;;4.88;2.80;;;;;;;13.62;75.42;101036.88;5011893;28;20033;-45
2023/05/26 04:39:07;;;;;;;5.65;2.97;;;;;;;13.68;75.41;101032.47;5013222;28;20029;-45
2023/05/26 04:41:33;;;;;;;5.93;2.53;;;;;;;13.77;74.85;101039.22;5013087;28;20026;-45
2023/05/26 04:44:00;;;;;;;8.02;2.65;;;;;;;13.84;74.41;101037.28;5013087;28;20030;-46
2023/05/26 04:46:28;;;;;;;12.07;3.13;;;;;;;13.97;73.43;101041.69;5012809;28;20083;-46
2023/05/26 04:48:57;;;;;;;4.30;2.85;;;;;;;13.93;73.57;101052.06;5013196;28;20026;-44
2023/05/26 04:51:24;;;;;;;6.95;2.17;;;;;;;13.86;74.00;101045.13;5012357;28;20124;-43
2023/05/26 04:53:51;;;;;;;4.30;2.28;;;;;;;13.55;74.48;101057.63;5013026;28;20410;-44
2023/05/26 04:56:17;;;;;;;4.45;2.10;;;;;;;13.62;74.47;101055.72;5012285;28;20030;-43
2023/05/26 04:58:43;;;;;;;5.20;2.40;;;;;;;13.63;74.38;101053.84;5011452;28;20470;-43
2023/05/26 05:01:09;;;;;;;5.85;2.30;;;;;;;13.69;74.04;101050.25;5012916;28;20552;-45
2023/05/26 05:03:36;;;;;;;5.40;2.38;;;;;;;13.70;73.99;101057.28;5011243;28;20038;-45
2023/05/26 05:06:02;;;;;;;9.45;2.35;;;;;;;13.60;74.33;101052.44;5010242;28;20072;-47
2023/05/26 05:08:30;;;;;;;6.22;2.30;;;;;;;13.65;74.36;101063.31;4993180;28;20426;-45
2023/05/26 05:10:56;;;;;;;4.70;1.90;;;;;;;13.58;74.63;101059.88;4992921;28;20391;-49
2023/05/26 05:13:22;;;;;;;5.25;2.25;;;;;;;13.60;74.32;101048.88;5000139;28;20172;-44
2023/05/26 05:15:48;;;;;;;5.03;2.15;;;;;;;13.61;74.05;101048.69;4992093;28;20459;-45
2023/05/26 05:18:14;;;;;;;3.83;2.22;;;;;;;13.54;74.05;101047.09;4992909;28;20031;-44
2023/05/26 05:20:41;;;;;;;4.68;2.03;;;;;;;13.45;74.81;101063.50;4992585;28;20479;-44
2023/05/26 05:23:07;;;;;;;3.75;2.05;;;;;;;13.45;74.68;101055.44;4994957;28;20417;-46
2023/05/26 05:25:33;;;;;;;5.80;1.85;;;;;;;13.50;74.68;101070.09;4998709;28;20076;-45
2023/05/26 05:27:59;;;;;;;6.30;2.83;;;;;;;13.50;74.55;101056.66;5007355;28;20475;-46
2023/05/26 05:30:26;;;;;;;11.93;2.85;;;;;;;13.54;74.42;101052.47;5012296;28;20034;-45
2023/05/26 05:32:52;;;;;;;5.00;1.83;;;;;;;13.53;74.09;101057.00;5012280;28;20078;-45
2023/05/26 05:35:18;;;;;;;2.88;1.48;;;;;;;13.48;74.26;101062.22;5012097;28;20025;-44
2023/05/26 05:37:44;;;;;;;2.33;1.85;;;;;;;13.58;73.95;101064.44;5012188;28;20017;-45
2023/05/26 05:40:11;;;;;;;2.65;1.60;;;;;;;13.61;73.83;101069.38;5011348;28;20100;-45
2023/05/26 05:42:37;;;;;;;2.75;1.60;;;;;;;13.54;73.97;101072.09;5011877;28;20013;-46
2023/05/26 05:45:05;;;;;;;4.75;2.05;;;;;;;13.43;74.38;101070.13;5011785;28;20113;-45
2023/05/26 05:47:31;;;;;;;4.65;2.05;;;;;;;13.39;75.03;101072.44;5012109;28;20085;-44
2023/05/26 05:49:58;;;;;;;2.78;1.60;;;;;;;13.51;74.70;101071.75;5012170;28;20113;-44
2023/05/26 05:52:24;;;;;;;6.88;2.38;;;;;;;13.34;75.35;101061.53;5011915;28;20022;-44
2023/05/26 05:54:50;;;;;;;4.20;1.95;;;;;;;13.46;74.95;101073.22;5011722;28;20025;-45
2023/05/26 05:57:16;;;;;;;4.25;2.03;;;;;;;13.43;75.17;101070.94;5011996;28;20022;-48
2023/05/26 05:59:43;;;;;;;3.10;1.80;;;;;;;13.37;75.49;101077.22;5011335;28;20038;-48
2023/05/26 06:02:09;;;;;;;5.10;2.28;;;;;;;13.24;75.79;101074.63;5009966;28;20057;-46
2023/05/26 06:04:36;;;;;;;3.00;1.90;;;;;;;13.23;75.70;101072.97;5011937;28;20042;-45
2023/05/26 06:07:02;;;;;;;4.10;1.90;;;;;;;13.27;75.58;101073.34;5011730;28;20666;-48
2023/05/26 06:09:28;;;;;;;3.95;2.10;;;;;;;13.28;75.96;101075.84;5011828;28;20034;-48
2023/05/26 06:11:54;;;;;;;5.05;1.90;;;;;;;13.24;76.10;101074.63;5011783;28;20068;-45
2023/05/26 06:14:21;;;;;;;2.47;1.52;;;;;;;13.41;75.16;101070.34;5011854;28;20022;-45
2023/05/26 06:16:47;;;;;;;3.40;1.92;;;;;;;13.42;75.20;101076.56;5011645;28;20484;-48
2023/05/26 06:19:13;;;;;;;5.18;2.17;;;;;;;13.17;76.21;101073.81;5011700;28;20026;-46
2023/05/26 06:21:39;;;;;;;3.92;1.90;;;;;;;13.24;75.91;101077.31;5011870;28;20087;-47
2023/05/26 06:24:06;;;;;;;2.70;1.83;;;;;;;13.34;75.69;101080.34;5011189;28;20179;-46
2023/05/26 06:26:32;;;;;;;3.45;2.00;;;;;;;13.50;75.11;101080.84;5011679;28;20429;-48
2023/05/26 06:28:58;;;;;;;6.95;2.03;;;;;;;13.41;75.02;101077.59;5011917;28;20088;-45
2023/05/26 06:31:25;;;;;;;3.05;1.77;;;;;;;13.51;74.64;101079.81;5011504;28;20045;-45
2023/05/26 06:33:54;;;;;;;4.10;1.67;;;;;;;13.53;74.08;101081.22;4999169;28;20050;-47
2023/05/26 06:36:21;;;;;;;4.60;1.80;;;;;;;13.48;74.41;101073.81;4993442;28;20034;-45
2023/05/26 06:38:48;;;;;;;3.78;1.98;;;;;;;13.41;74.64;101082.97;4991719;28;20018;-46
2023/05/26 06:41:14;;;;;;;2.17;1.33;;;;;;;13.47;74.24;101088.31;4992209;28;20053;-47
2023/05/26 06:43:40;;;;;;;3.42;1.88;;;;;;;13.34;74.82;101085.72;4991809;28;20026;-45
2023/05/26 06:46:06;;;;;;;1.80;1.38;;;;;;;13.37;74.47;101084.44;4994512;28;20030;-45
2023/05/26 06:48:33;;;;;;;3.25;1.38;;;;;;;13.37;74.47;101089.81;4994974;28;20018;-45
2023/05/26 06:50:59;;;;;;;3.10;1.50;;;;;;;13.26;74.70;101091.34;5011364;28;20033;-49
2023/05/26 06:53:25;;;;;;;2.42;1.42;;;;;;;13.16;75.14;101096.38;4994742;28;20434;-48
2023/05/26 06:55:51;;;;;;;2.72;1.50;;;;;;;13.27;74.70;101103.78;4991142;28;20391;-48
2023/05/26 06:58:18;;;;;;;3.58;1.40;;;;;;;13.09;75.47;101104.44;4991331;28;20026;-45
2023/05/26 07:01:01;;;;;;;1.90;1.30;;;;;;;13.20;74.82;101100.25;4990824;28;20031;-49
2023/05/26 07:03:27;;;;;;;2.45;1.23;;;;;;;13.09;75.36;101107.13;4990297;28;20023;-48
2023/05/26 07:05:55;;;;;;;1.55;1.23;;;;;;;13.31;74.18;101102.28;4991309;28;20027;-48
2023/05/26 07:08:21;;;;;;;3.00;1.13;;;;;;;13.24;74.56;101100.69;4991634;28;20089;-48
2023/05/26 07:10:48;;;;;;;2.38;1.30;;;;;;;13.22;74.59;101098.22;5001872;28;20072;-48
2023/05/26 07:13:15;;;;;;;4.07;1.60;;;;;;;13.22;74.84;101105.47;5012004;28;20025;-49
2023/05/26 07:15:42;;;;;;;4.68;1.35;;;;;;;13.16;75.09;101102.56;5014380;28;20026;-46
2023/05/26 07:18:08;;;;;;;1.98;1.40;;;;;;;13.18;74.69;101096.97;5014998;28;20402;-46
2023/05/26 07:20:35;;;;;;;4.63;1.33;;;;;;;13.26;74.44;101102.09;5003914;28;20112;-47
2023/05/26 07:23:01;;;;;;;3.17;1.65;;;;;;;13.31;73.90;101098.75;4994350;28;20482;-47
2023/05/26 07:25:28;;;;;;;5.18;1.27;;;;;;;13.15;75.17;101092.00;4994736;28;20038;-44
2023/05/26 07:27:55;;;;;;;2.88;0.90;;;;;;;13.16;74.46;101093.69;4994900;28;20030;-45
2023/05/26 07:30:22;;;;;;;1.75;1.05;;;;;;;13.19;74.35;101099.44;4994678;28;20038;-45
2023/05/26 07:32:48;;;;;;;1.95;1.17;;;;;;;13.35;73.57;101102.69;4994562;28;20085;-45
2023/05/26 07:35:14;;;;;;;2.13;1.30;;;;;;;13.42;73.25;101104.25;4992917;28;20045;-45
2023/05/26 07:37:41;;;;;;;2.85;1.60;;;;;;;13.18;74.29;101102.34;4997836;28;20032;-44
2023/05/26 07:40:07;;;;;;;2.00;1.33;;;;;;;13.23;74.03;101097.19;4994488;28;20026;-45
2023/05/26 07:42:34;;;;;;;2.88;1.50;;;;;;;13.20;74.63;101108.31;4994009;28;20027;-45
2023/05/26 07:45:01;;;;;;;6.75;2.20;;;;;;;13.20;74.87;101102.94;4994292;28;20044;-45
2023/05/26 07:47:31;;;;;;;4.10;1.75;;;;;;;13.17;75.07;101096.16;4994240;28;20026;-46
2023/05/26 07:50:00;;;;;;;2.53;1.58;;;;;;;13.18;74.62;101102.34;4994742;28;20049;-48
2023/05/26 07:52:27;;;;;;;3.03;1.88;;;;;;;13.04;75.29;101104.28;4997766;28;20034;-47
2023/05/26 07:54:53;;;;;;;3.20;1.90;;;;;;;12.98;75.95;101107.00;4993393;28;20026;-45
2023/05/26 07:57:19;;;;;;;3.22;1.38;;;;;;;13.04;75.83;101101.59;4998374;28;20113;-46
2023/05/26 07:59:45;;;;;;;3.47;1.73;;;;;;;12.99;76.29;101097.91;5007563;28;20372;-45
2023/05/26 08:02:12;;;;;;;3.83;2.22;;;;;;;12.98;76.38;101102.44;5013790;28;20099;-47
2023/05/26 08:04:38;;;;;;;2.80;1.73;;;;;;;13.04;76.03;101096.22;5013595;28;20034;-45
2023/05/26 08:07:05;;;;;;;3.45;2.15;;;;;;;12.95;76.52;101094.84;5013261;28;20041;-45
2023/05/26 08:09:31;;;;;;;3.80;1.50;;;;;;;12.92;76.41;101104.13;5013726;28;20537;-47
2023/05/26 08:11:58;;;;;;;3.55;2.17;;;;;;;12.88;76.58;101111.00;4996277;28;20116;-46
2023/05/26 08:14:26;;;;;;;4.82;1.90;;;;;;;12.86;76.97;101114.91;5013451;28;20037;-45
2023/05/26 08:16:52;;;;;;;3.47;1.60;;;;;;;12.86;76.83;101110.38;5012527;28;20041;-45
2023/05/26 08:19:19;;;;;;;3.17;1.90;;;;;;;12.98;76.52;101104.31;5013591;28;20026;-46
2023/05/26 08:21:45;;;;;;;5.90;2.60;;;;;;;12.89;77.17;101106.44;5013681;28;20025;-46
2023/05/26 08:24:11;;;;;;;4.25;2.17;;;;;;;12.94;77.11;101104.75;5012936;28;20049;-48
2023/05/26 08:26:37;;;;;;;5.18;2.53;;;;;;;12.87;77.65;101095.06;5012702;28;20021;-45
2023/05/26 08:29:04;;;;;;;3.30;1.73;;;;;;;12.97;77.23;101095.44;5013288;28;20112;-45
2023/05/26 08:31:30;;;;;;;4.53;2.20;;;;;;;12.83;78.20;101097.38;4999770;28;20061;-47
2023/05/26 08:33:56;;;;;;;3.28;2.13;;;;;;;12.87;78.05;101087.84;4993451;28;20046;-47
2023/05/26 08:36:22;;;;;;;5.70;2.50;;;;;;;12.92;78.19;101076.44;4998701;28;20022;-44
2023/05/26 08:38:49;;;;;;;5.07;1.88;;;;;;;12.95;78.00;101071.47;4993411;28;20542;-46
2023/05/26 08:41:20;;;;;;;5.18;2.50;;;;;;;13.00;78.04;101078.91;4993638;28;20073;-45
2023/05/26 08:43:57;;;;;;;3.53;2.17;;;;;;;12.89;78.44;101077.72;4993517;28;20125;-45
2023/05/26 08:46:24;;;;;;;3.42;1.90;;;;;;;12.85;79.17;101087.22;4993238;28;20019;-48
2023/05/26 08:48:51;;;;;;;3.50;2.38;;;;;;;12.82;79.19;101092.19;4991229;28;20113;-46
2023/05/26 08:51:17;;;;;;;5.63;2.00;;;;;;;12.83;78.89;101081.25;4993166;28;20108;-48
2023/05/26 08:53:47;;;;;;;4.68;2.03;;;;;;;12.81;79.17;101080.63;4990979;28;20030;-49
2023/05/26 08:56:13;;;;;;;5.25;2.17;;;;;;;12.91;78.66;101067.56;5000307;28;20061;-45
2023/05/26 08:58:43;;;;;;;6.43;2.47;;;;;;;13.03;78.29;101069.56;4993381;28;20026;-48
2023/05/26 09:01:09;;;;;;;3.95;2.42;;;;;;;12.98;78.45;101072.91;4993018;28;20022;-46
2023/05/26 09:03:36;;;;;;;2.60;2.00;;;;;;;12.88;78.66;101062.66;5006941;28;20442;-46
2023/05/26 09:06:03;;;;;;;3.97;2.05;;;;;;;12.78;79.08;101069.53;5012532;28;20022;-45
2023/05/26 09:08:29;;;;;;;3.53;1.95;;;;;;;12.78;79.13;101075.72;5012400;28;20049;-45
2023/05/26 09:11:04;;;;;;;2.47;1.83;;;;;;;12.85;78.81;101071.13;5012574;28;20057;-45
2023/05/26 09:13:32;;;;;;;4.63;1.92;;;;;;;12.85;79.02;101076.50;4998153;28;20042;-48
2023/05/26 09:15:58;;;;;;;3.13;1.95;;;;;;;12.81;79.08;101067.22;4992589;28;20097;-47
2023/05/26 09:18:24;;;;;;;4.28;2.20;;;;;;;12.82;78.67;101068.84;4993113;28;20442;-45
2023/05/26 09:20:51;;;;;;;5.97;1.95;;;;;;;12.83;78.89;101073.22;4992282;28;20027;-46
2023/05/26 09:23:21;;;;;;;4.40;2.30;;;;;;;12.82;79.04;101070.72;4992457;28;20431;-46
2023/05/26 09:25:51;;;;;;;4.22;2.45;;;;;;;12.82;78.80;101063.47;4992373;28;20369;-46
2023/05/26 09:28:20;;;;;;;5.07;2.35;;;;;;;12.88;79.07;101048.34;4992504;28;20109;-48
2023/05/26 09:30:47;;;;;;;3.70;1.95;;;;;;;12.77;79.37;101051.72;4992836;28;20026;-46
2023/05/26 09:33:16;;;;;;;4.43;2.38;;;;;;;12.91;78.43;101046.06;4992421;28;20101;-47
2023/05/26 09:35:45;;;;;;;3.63;2.20;;;;;;;12.80;79.50;101052.13;4991707;28;20048;-48
2023/05/26 09:38:14;;;;;;;5.30;2.17;;;;;;;12.85;79.15;101056.88;4994180;28;20031;-46
2023/05/26 09:40:46;;;;;;;4.55;1.70;;;;;;;12.81;79.11;101061.84;4992301;28;20434;-48
2023/05/26 09:43:12;;;;;;;3.20;2.25;;;;;;;12.85;79.03;101062.25;4992509;28;20034;-45
2023/05/26 09:45:40;;;;;;;3.10;1.83;;;;;;;12.88;78.69;101059.94;4990695;28;20022;-46
2023/05/26 09:48:08;;;;;;;5.18;1.77;;;;;;;12.82;78.70;101057.28;4992134;28;20464;-45
2023/05/26 09:50:39;;;;;;;2.75;2.17;;;;;;;12.88;78.73;101051.91;4992602;28;20049;-47
2023/05/26 09:53:09;;;;;;;3.50;2.25;;;;;;;12.79;79.08;101044.31;4992405;28;20033;-46
2023/05/26 09:55:38;;;;;;;3.00;1.83;;;;;;;12.87;78.54;101055.59;4992336;28;20026;-45
2023/05/26 09:58:06;;;;;;;3.58;1.55;;;;;;;12.79;79.12;101055.03;4992123;28;20027;-45
2023/05/26 10:00:39;;;;;;;3.83;2.20;;;;;;;12.72;79.65;101046.22;4992248;28;20026;-48
2023/05/26 10:03:06;;;;;;;3.13;1.70;;;;;;;12.70;79.43;101054.47;4994945;28;20030;-45
2023/05/26 10:05:34;;;;;;;3.10;1.90;;;;;;;12.72;79.42;101054.25;4991625;28;20030;-45
2023/05/26 10:08:02;;;;;;;4.60;2.20;;;;;;;12.82;78.84;101059.97;5003171;28;20053;-45
2023/05/26 10:10:34;;;;;;;3.92;2.08;;;;;;;12.84;78.94;101061.41;5001658;28;20063;-48
2023/05/26 10:13:02;;;;;;;2.97;2.00;;;;;;;12.84;78.99;101061.41;5010846;28;20467;-45
2023/05/26 10:15:28;;;;;;;2.95;1.80;;;;;;;12.88;78.95;101059.94;5011478;28;20105;-46
2023/05/26 10:17:56;;;;;;;4.10;2.08;;;;;;;12.88;78.92;101069.84;5010033;28;20018;-44
2023/05/26 10:20:27;;;;;;;3.05;1.83;;;;;;;12.95;78.30;101073.34;5001226;28;20026;-45
2023/05/26 10:23:00;;;;;;;3.42;1.70;;;;;;;12.87;78.93;101065.53;4991980;28;20514;-46
2023/05/26 10:25:31;;;;;;;2.95;1.88;;;;;;;12.84;79.46;101069.47;4991766;28;20030;-45
2023/05/26 10:28:00;;;;;;;4.75;2.15;;;;;;;12.88;79.51;101070.69;4992551;28;20038;-45
2023/05/26 10:30:27;;;;;;;2.63;1.80;;;;;;;12.82;79.62;101076.09;5005249;28;20030;-45
2023/05/26 10:32:55;;;;;;;4.57;2.33;;;;;;;12.69;80.43;101071.63;5011565;28;20542;-45
2023/05/26 10:35:32;;;;;;;4.80;1.92;;;;;;;12.74;80.47;101079.84;5011254;28;20042;-45
2023/05/26 10:38:05;;;;;;;3.55;2.10;;;;;;;12.82;80.09;101066.16;4991524;28;20026;-44
2023/05/26 10:40:39;;;;;;;5.15;2.20;;;;;;;12.80;80.37;101068.25;4991637;28;20029;-45
2023/05/26 10:43:13;;;;;;;4.32;2.15;;;;;;;12.79;80.55;101082.72;4991593;28;20089;-44
2023/05/26 10:45:56;;;;;;;5.88;2.47;;;;;;;12.68;81.07;101080.72;4991818;28;20019;-44
2023/05/26 10:48:35;;;;;;;2.85;2.17;;;;;;;12.79;80.45;101081.91;4993045;28;20106;-44
2023/05/26 10:51:24;;;;;;;4.85;2.72;;;;;;;12.82;80.24;101086.84;5006294;28;20099;-44
2023/05/26 10:53:52;;;;;;;5.05;2.25;;;;;;;12.80;80.23;101094.28;5015252;28;20030;-44
2023/05/26 10:56:25;;;;;;;6.22;2.80;;;;;;;12.78;80.63;101091.81;5011659;28;20099;-44
2023/05/26 10:58:57;;;;;;;3.53;2.08;;;;;;;12.81;80.26;101090.56;5002980;28;20030;-44
2023/05/26 11:01:28;;;;;;;4.80;1.95;;;;;;;12.79;80.24;101090.78;4995263;28;20023;-44
2023/05/26 11:04:11;;;;;;;5.88;2.45;;;;;;;12.79;80.75;101092.66;4995384;28;20498;-44
2023/05/26 11:06:52;;;;;;;5.72;2.10;;;;;;;12.74;81.36;101095.97;4995028;28;20396;-44
2023/05/26 11:09:25;;;;;;;3.35;2.20;;;;;;;12.69;81.77;101087.72;4993543;28;20030;-44
2023/05/26 11:11:55;;;;;;;4.40;2.10;;;;;;;12.82;81.19;101087.66;4995073;28;20068;-48
2023/05/26 11:14:30;;;;;;;3.15;2.17;;;;;;;12.77;80.99;101089.34;4994721;28;20026;-45
2023/05/26 11:17:02;;;;;;;4.13;2.15;;;;;;;12.71;81.24;101093.69;4995072;28;20472;-44
2023/05/26 11:19:37;;;;;;;3.90;1.90;;;;;;;12.69;81.35;101087.72;5002976;28;20057;-46
2023/05/26 11:22:06;;;;;;;3.08;1.85;;;;;;;12.72;80.83;101087.31;5013328;28;20076;-44
2023/05/26 11:24:32;;;;;;;3.85;2.22;;;;;;;12.66;81.21;101085.50;4993097;28;20042;-45
2023/05/26 11:27:08;;;;;;;4.38;2.20;;;;;;;12.56;82.03;101077.88;4995211;28;20483;-44